Terminal Aerodrome Forecast
Issued by NWS Jackson, KY

Home | Current Version | Previous Version | Text Only | Print | Product List | Glossary On
Versions: 1 2 3 4 5 6 7 8 9 10 11 12
000
FTUS43 KJKL 220537
TAFLOZ
TAF
KLOZ 220537Z 2206/2306 VRB03KT P6SM FEW250
     FM221200 19004KT P6SM SCT040
     FM221700 24008KT P6SM VCTS SCT040CB BKN060
     FM222200 25008KT 5SM TSRA BKN040CB
     FM230200 23003KT 6SM -SHRA VCTS BKN025CB=

USA.gov is the U.S. government's official web portal to all federal, state and local government web resources and services.